Terminal Aerodrome Forecast
Issued by NWS Midland/Odessa, TX

Home | Current Version | Previous Version | Text Only | Print | Product List | Glossary On
Versions: 1 2 3 4 5 6 7 8 9 10 11 12 13 14 15 16 17 18 19 20 21 22
000
FTUS44 KMAF 281724
TAFMAF
TAF
KMAF 281724Z 2818/2918 13009KT P6SM BKN060 BKN100
      TEMPO 2900/2904 VRB25G35KT 4SM TSRA BKN040CB
     FM290400 11007KT P6SM BKN050 BKN100
      TEMPO 2904/2908 VRB20G30KT 4SM TSRA BKN030CB
     FM290800 09007KT P6SM BKN040 BKN100
      TEMPO 2908/2912 4SM TSRA BR OVC020CB=

USA.gov is the U.S. government's official web portal to all federal, state and local government web resources and services.